sensor_id;sensor_type;location;lat;lon;timestamp;P1;durP1;ratioP1;P2;durP2;ratioP2
73959;SDS011;62316;48.920;2.342;2023-03-31T04:01:57;8.00;;;4.33;;
73959;SDS011;62316;48.920;2.342;2023-03-31T04:04:29;4.00;;;4.00;;
73959;SDS011;62316;48.920;2.342;2023-03-31T04:06:54;6.67;;;5.00;;
73959;SDS011;62316;48.920;2.342;2023-03-31T04:09:20;7.33;;;4.00;;
73959;SDS011;62316;48.920;2.342;2023-03-31T04:11:45;5.67;;;4.00;;
73959;SDS011;62316;48.920;2.342;2023-03-31T04:14:11;7.75;;;5.50;;
73959;SDS011;62316;48.920;2.342;2023-03-31T04:16:36;6.00;;;4.67;;
73959;SDS011;62316;48.920;2.342;2023-03-31T04:19:02;7.33;;;5.00;;
73959;SDS011;62316;48.920;2.342;2023-03-31T04:21:29;6.00;;;3.67;;
73959;SDS011;62316;48.920;2.342;2023-03-31T04:23:58;5.00;;;4.67;;
73959;SDS011;62316;48.920;2.342;2023-03-31T04:26:26;6.00;;;3.00;;
73959;SDS011;62316;48.920;2.342;2023-03-31T04:29:03;5.33;;;4.00;;
73959;SDS011;62316;48.920;2.342;2023-03-31T04:31:29;5.00;;;4.00;;
73959;SDS011;62316;48.920;2.342;2023-03-31T04:33:55;7.33;;;4.33;;
73959;SDS011;62316;48.920;2.342;2023-03-31T04:36:26;6.00;;;4.67;;
73959;SDS011;62316;48.920;2.342;2023-03-31T04:39:00;5.33;;;3.00;;
73959;SDS011;62316;48.920;2.342;2023-03-31T04:41:29;5.67;;;4.33;;
73959;SDS011;62316;48.920;2.342;2023-03-31T04:44:04;6.67;;;4.00;;
73959;SDS011;62316;48.920;2.342;2023-03-31T04:46:30;4.00;;;4.00;;
73959;SDS011;62316;48.920;2.342;2023-03-31T04:48:58;6.33;;;4.67;;
73959;SDS011;62316;48.920;2.342;2023-03-31T04:51:25;8.00;;;6.00;;
73959;SDS011;62316;48.920;2.342;2023-03-31T04:53:50;6.00;;;5.00;;
73959;SDS011;62316;48.920;2.342;2023-03-31T04:56:29;6.33;;;3.00;;
73959;SDS011;62316;48.920;2.342;2023-03-31T04:58:54;3.00;;;3.00;;
73959;SDS011;62316;48.920;2.342;2023-03-31T05:01:38;5.00;;;4.00;;
73959;SDS011;62316;48.920;2.342;2023-03-31T05:04:18;7.33;;;6.33;;
73959;SDS011;62316;48.920;2.342;2023-03-31T05:06:47;8.67;;;6.00;;
73959;SDS011;62316;48.920;2.342;2023-03-31T05:09:26;6.00;;;6.00;;
73959;SDS011;62316;48.920;2.342;2023-03-31T05:11:51;5.00;;;3.00;;
73959;SDS011;62316;48.920;2.342;2023-03-31T05:14:17;7.33;;;4.00;;
73959;SDS011;62316;48.920;2.342;2023-03-31T05:16:42;9.67;;;6.67;;
73959;SDS011;62316;48.920;2.342;2023-03-31T05:19:08;6.67;;;6.67;;
73959;SDS011;62316;48.920;2.342;2023-03-31T05:21:33;6.00;;;4.67;;
73959;SDS011;62316;48.920;2.342;2023-03-31T05:23:59;6.67;;;5.67;;
73959;SDS011;62316;48.920;2.342;2023-03-31T05:26:25;6.00;;;4.67;;
73959;SDS011;62316;48.920;2.342;2023-03-31T05:28:51;8.33;;;5.67;;
73959;SDS011;62316;48.920;2.342;2023-03-31T05:31:20;8.67;;;6.00;;
73959;SDS011;62316;48.920;2.342;2023-03-31T05:33:46;9.00;;;6.67;;
73959;SDS011;62316;48.920;2.342;2023-03-31T05:36:13;6.00;;;5.00;;
73959;SDS011;62316;48.920;2.342;2023-03-31T05:38:40;4.67;;;4.67;;
73959;SDS011;62316;48.920;2.342;2023-03-31T05:41:06;6.33;;;4.00;;
73959;SDS011;62316;48.920;2.342;2023-03-31T05:43:33;8.00;;;4.00;;
73959;SDS011;62316;48.920;2.342;2023-03-31T05:45:59;7.00;;;5.33;;
73959;SDS011;62316;48.920;2.342;2023-03-31T05:48:24;8.00;;;6.00;;
73959;SDS011;62316;48.920;2.342;2023-03-31T05:50:49;9.00;;;5.00;;
73959;SDS011;62316;48.920;2.342;2023-03-31T05:53:15;7.00;;;4.00;;
73959;SDS011;62316;48.920;2.342;2023-03-31T05:55:40;6.67;;;4.67;;
73959;SDS011;62316;48.920;2.342;2023-03-31T05:58:05;4.67;;;3.00;;
73959;SDS011;62316;48.920;2.342;2023-03-31T06:00:32;11.33;;;6.67;;
73959;SDS011;62316;48.920;2.342;2023-03-31T06:02:59;8.67;;;5.00;;
73959;SDS011;62316;48.920;2.342;2023-03-31T06:05:25;9.33;;;3.33;;
73959;SDS011;62316;48.920;2.342;2023-03-31T06:07:51;10.67;;;6.33;;
73959;SDS011;62316;48.920;2.342;2023-03-31T06:10:19;7.33;;;7.00;;
73959;SDS011;62316;48.920;2.342;2023-03-31T06:12:52;7.67;;;4.67;;
73959;SDS011;62316;48.920;2.342;2023-03-31T06:15:23;6.67;;;4.33;;
73959;SDS011;62316;48.920;2.342;2023-03-31T06:17:49;6.00;;;5.00;;
73959;SDS011;62316;48.920;2.342;2023-03-31T06:20:15;8.33;;;6.33;;
73959;SDS011;62316;48.920;2.342;2023-03-31T06:22:40;9.67;;;8.00;;
73959;SDS011;62316;48.920;2.342;2023-03-31T06:25:06;8.33;;;5.00;;
73959;SDS011;62316;48.920;2.342;2023-03-31T06:27:32;7.67;;;4.67;;
73959;SDS011;62316;48.920;2.342;2023-03-31T06:29:57;7.33;;;6.33;;
73959;SDS011;62316;48.920;2.342;2023-03-31T06:32:23;6.00;;;3.00;;
73959;SDS011;62316;48.920;2.342;2023-03-31T06:34:48;8.00;;;6.00;;
73959;SDS011;62316;48.920;2.342;2023-03-31T06:37:14;5.67;;;3.33;;
73959;SDS011;62316;48.920;2.342;2023-03-31T06:39:39;8.00;;;3.33;;
73959;SDS011;62316;48.920;2.342;2023-03-31T06:42:04;5.67;;;4.00;;
73959;SDS011;62316;48.920;2.342;2023-03-31T06:44:31;5.67;;;3.67;;
73959;SDS011;62316;48.920;2.342;2023-03-31T06:46:56;12.67;;;5.67;;
73959;SDS011;62316;48.920;2.342;2023-03-31T06:49:22;7.00;;;6.00;;
73959;SDS011;62316;48.920;2.342;2023-03-31T06:51:47;4.00;;;4.00;;
73959;SDS011;62316;48.920;2.342;2023-03-31T06:54:12;5.33;;;4.00;;
73959;SDS011;62316;48.920;2.342;2023-03-31T06:56:38;6.00;;;4.67;;
73959;SDS011;62316;48.920;2.342;2023-03-31T06:59:03;5.00;;;4.67;;
73959;SDS011;62316;48.920;2.342;2023-03-31T07:01:29;6.00;;;5.00;;
73959;SDS011;62316;48.920;2.342;2023-03-31T07:03:55;7.00;;;4.33;;
73959;SDS011;62316;48.920;2.342;2023-03-31T07:06:21;2.67;;;2.33;;
73959;SDS011;62316;48.920;2.342;2023-03-31T07:08:46;7.33;;;5.33;;
73959;SDS011;62316;48.920;2.342;2023-03-31T07:11:12;6.33;;;3.67;;
73959;SDS011;62316;48.920;2.342;2023-03-31T07:13:37;11.00;;;6.33;;
73959;SDS011;62316;48.920;2.342;2023-03-31T07:16:02;2.67;;;2.33;;
73959;SDS011;62316;48.920;2.342;2023-03-31T07:18:29;13.00;;;6.67;;
73959;SDS011;62316;48.920;2.342;2023-03-31T07:20:58;5.33;;;3.67;;
73959;SDS011;62316;48.920;2.342;2023-03-31T07:23:24;4.33;;;2.00;;
73959;SDS011;62316;48.920;2.342;2023-03-31T07:25:50;7.33;;;3.00;;
73959;SDS011;62316;48.920;2.342;2023-03-31T07:28:15;6.33;;;5.00;;
73959;SDS011;62316;48.920;2.342;2023-03-31T07:30:41;5.00;;;2.00;;
73959;SDS011;62316;48.920;2.342;2023-03-31T07:33:06;5.67;;;4.00;;
73959;SDS011;62316;48.920;2.342;2023-03-31T07:35:32;6.00;;;3.33;;
73959;SDS011;62316;48.920;2.342;2023-03-31T07:37:57;5.00;;;2.00;;
73959;SDS011;62316;48.920;2.342;2023-03-31T07:40:24;5.33;;;5.00;;
73959;SDS011;62316;48.920;2.342;2023-03-31T07:42:52;5.00;;;4.00;;
73959;SDS011;62316;48.920;2.342;2023-03-31T07:45:18;3.00;;;3.00;;
73959;SDS011;62316;48.920;2.342;2023-03-31T07:47:45;6.00;;;2.67;;
73959;SDS011;62316;48.920;2.342;2023-03-31T07:50:11;4.67;;;3.00;;
73959;SDS011;62316;48.920;2.342;2023-03-31T07:52:37;5.00;;;4.00;;
73959;SDS011;62316;48.920;2.342;2023-03-31T07:55:04;3.33;;;1.67;;
73959;SDS011;62316;48.920;2.342;2023-03-31T07:57:29;5.00;;;3.00;;
73959;SDS011;62316;48.920;2.342;2023-03-31T07:59:55;4.67;;;3.67;;
73959;SDS011;62316;48.920;2.342;2023-03-31T08:02:20;6.00;;;3.00;;
73959;SDS011;62316;48.920;2.342;2023-03-31T08:04:46;5.00;;;4.00;;
73959;SDS011;62316;48.920;2.342;2023-03-31T08:07:11;7.67;;;5.67;;
73959;SDS011;62316;48.920;2.342;2023-03-31T08:09:39;4.00;;;4.00;;
73959;SDS011;62316;48.920;2.342;2023-03-31T08:12:05;2.00;;;2.00;;
73959;SDS011;62316;48.920;2.342;2023-03-31T08:14:31;4.67;;;3.00;;
73959;SDS011;62316;48.920;2.342;2023-03-31T08:16:56;5.33;;;4.00;;
73959;SDS011;62316;48.920;2.342;2023-03-31T08:19:24;4.67;;;3.33;;
73959;SDS011;62316;48.920;2.342;2023-03-31T08:21:49;7.67;;;2.67;;
73959;SDS011;62316;48.920;2.342;2023-03-31T08:24:16;5.00;;;3.33;;
73959;SDS011;62316;48.920;2.342;2023-03-31T08:26:42;4.67;;;4.67;;
73959;SDS011;62316;48.920;2.342;2023-03-31T08:29:07;4.33;;;2.33;;
73959;SDS011;62316;48.920;2.342;2023-03-31T08:31:33;2.67;;;2.67;;
73959;SDS011;62316;48.920;2.342;2023-03-31T08:33:58;5.33;;;4.00;;
73959;SDS011;62316;48.920;2.342;2023-03-31T08:36:24;4.00;;;3.00;;
73959;SDS011;62316;48.920;2.342;2023-03-31T08:38:51;8.00;;;5.00;;
73959;SDS011;62316;48.920;2.342;2023-03-31T08:44:03;7.33;;;4.67;;
73959;SDS011;62316;48.920;2.342;2023-03-31T08:46:33;3.00;;;1.00;;
73959;SDS011;62316;48.920;2.342;2023-03-31T08:48:59;6.33;;;4.33;;
73959;SDS011;62316;48.920;2.342;2023-03-31T08:51:27;5.33;;;5.00;;
73959;SDS011;62316;48.920;2.342;2023-03-31T08:54:02;11.00;;;6.00;;
73959;SDS011;62316;48.920;2.342;2023-03-31T08:56:32;6.00;;;3.00;;
73959;SDS011;62316;48.920;2.342;2023-03-31T08:59:01;3.67;;;2.00;;
73959;SDS011;62316;48.920;2.342;2023-03-31T09:04:17;3.00;;;2.00;;
73959;SDS011;62316;48.920;2.342;2023-03-31T09:09:51;3.00;;;1.67;;
73959;SDS011;62316;48.920;2.342;2023-03-31T09:12:22;5.67;;;2.00;;
73959;SDS011;62316;48.920;2.342;2023-03-31T09:14:53;6.33;;;1.67;;
73959;SDS011;62316;48.920;2.342;2023-03-31T09:17:28;7.67;;;4.67;;
73959;SDS011;62316;48.920;2.342;2023-03-31T09:19:59;6.00;;;2.00;;
73959;SDS011;62316;48.920;2.342;2023-03-31T09:22:40;6.33;;;4.00;;
73959;SDS011;62316;48.920;2.342;2023-03-31T09:25:10;6.67;;;3.00;;
73959;SDS011;62316;48.920;2.342;2023-03-31T09:27:37;6.33;;;2.67;;
73959;SDS011;62316;48.920;2.342;2023-03-31T09:30:09;3.33;;;3.00;;
73959;SDS011;62316;48.920;2.342;2023-03-31T09:32:48;6.33;;;4.33;;
73959;SDS011;62316;48.920;2.342;2023-03-31T09:35:24;3.00;;;2.00;;
73959;SDS011;62316;48.920;2.342;2023-03-31T09:37:50;4.00;;;4.00;;
73959;SDS011;62316;48.920;2.342;2023-03-31T09:40:20;3.00;;;2.00;;
73959;SDS011;62316;48.920;2.342;2023-03-31T09:42:50;5.33;;;4.33;;
73959;SDS011;62316;48.920;2.342;2023-03-31T09:45:23;6.67;;;4.00;;
73959;SDS011;62316;48.920;2.342;2023-03-31T09:47:56;3.33;;;2.33;;
73959;SDS011;62316;48.920;2.342;2023-03-31T09:50:22;2.67;;;2.00;;
73959;SDS011;62316;48.920;2.342;2023-03-31T09:52:52;8.00;;;5.67;;
73959;SDS011;62316;48.920;2.342;2023-03-31T09:55:22;7.67;;;3.00;;
73959;SDS011;62316;48.920;2.342;2023-03-31T09:57:48;3.00;;;3.00;;
73959;SDS011;62316;48.920;2.342;2023-03-31T10:00:17;5.67;;;4.00;;
73959;SDS011;62316;48.920;2.342;2023-03-31T10:07:48;6.33;;;3.67;;
73959;SDS011;62316;48.920;2.342;2023-03-31T10:10:22;6.33;;;2.67;;
73959;SDS011;62316;48.920;2.342;2023-03-31T10:12:53;4.33;;;3.00;;
73959;SDS011;62316;48.920;2.342;2023-03-31T10:15:20;2.33;;;1.00;;
73959;SDS011;62316;48.920;2.342;2023-03-31T10:17:47;2.67;;;2.33;;
73959;SDS011;62316;48.920;2.342;2023-03-31T10:20:26;1.33;;;1.33;;
73959;SDS011;62316;48.920;2.342;2023-03-31T10:22:54;4.00;;;3.00;;
73959;SDS011;62316;48.920;2.342;2023-03-31T10:25:21;3.00;;;2.00;;
73959;SDS011;62316;48.920;2.342;2023-03-31T10:27:50;5.00;;;3.00;;
73959;SDS011;62316;48.920;2.342;2023-03-31T10:30:20;2.33;;;1.00;;
73959;SDS011;62316;48.920;2.342;2023-03-31T10:32:47;3.00;;;3.00;;
73959;SDS011;62316;48.920;2.342;2023-03-31T10:35:19;2.33;;;2.00;;
73959;SDS011;62316;48.920;2.342;2023-03-31T10:37:46;2.33;;;2.33;;
73959;SDS011;62316;48.920;2.342;2023-03-31T10:40:14;1.67;;;1.67;;
73959;SDS011;62316;48.920;2.342;2023-03-31T10:42:43;3.00;;;1.67;;
73959;SDS011;62316;48.920;2.342;2023-03-31T10:45:12;1.33;;;1.33;;
73959;SDS011;62316;48.920;2.342;2023-03-31T10:47:49;4.33;;;2.67;;
73959;SDS011;62316;48.920;2.342;2023-03-31T10:50:17;3.00;;;2.00;;
73959;SDS011;62316;48.920;2.342;2023-03-31T10:52:44;5.00;;;2.33;;
73959;SDS011;62316;48.920;2.342;2023-03-31T10:55:12;0.33;;;0.00;;
73959;SDS011;62316;48.920;2.342;2023-03-31T11:00:44;3.00;;;2.00;;
73959;SDS011;62316;48.920;2.342;2023-03-31T11:03:36;2.33;;;1.00;;
73959;SDS011;62316;48.920;2.342;2023-03-31T11:06:12;3.33;;;1.67;;
73959;SDS011;62316;48.920;2.342;2023-03-31T11:11:30;1.00;;;1.00;;
73959;SDS011;62316;48.920;2.342;2023-03-31T11:20:00;5.33;;;3.00;;
73959;SDS011;62316;48.920;2.342;2023-03-31T11:22:41;2.00;;;2.00;;
73959;SDS011;62316;48.920;2.342;2023-03-31T11:41:22;3.00;;;2.00;;
73959;SDS011;62316;48.920;2.342;2023-03-31T11:44:00;2.00;;;1.00;;
73959;SDS011;62316;48.920;2.342;2023-03-31T11:46:35;1.67;;;1.67;;
73959;SDS011;62316;48.920;2.342;2023-03-31T11:49:17;2.00;;;2.00;;
73959;SDS011;62316;48.920;2.342;2023-03-31T11:54:09;2.00;;;2.00;;
73959;SDS011;62316;48.920;2.342;2023-03-31T11:56:42;2.00;;;1.00;;
73959;SDS011;62316;48.920;2.342;2023-03-31T11:59:10;1.00;;;1.00;;
73959;SDS011;62316;48.920;2.342;2023-03-31T12:04:17;1.33;;;1.00;;
73959;SDS011;62316;48.920;2.342;2023-03-31T12:06:44;2.67;;;1.67;;
73959;SDS011;62316;48.920;2.342;2023-03-31T12:09:16;1.00;;;1.00;;
73959;SDS011;62316;48.920;2.342;2023-03-31T12:12:01;3.00;;;1.00;;
73959;SDS011;62316;48.920;2.342;2023-03-31T12:17:09;2.00;;;1.00;;
73959;SDS011;62316;48.920;2.342;2023-03-31T12:22:58;3.00;;;1.00;;
73959;SDS011;62316;48.920;2.342;2023-03-31T12:25:11;2.67;;;1.33;;
73959;SDS011;62316;48.920;2.342;2023-03-31T12:27:39;1.67;;;1.00;;
73959;SDS011;62316;48.920;2.342;2023-03-31T12:30:10;3.33;;;2.00;;
73959;SDS011;62316;48.920;2.342;2023-03-31T12:32:56;2.33;;;1.00;;
73959;SDS011;62316;48.920;2.342;2023-03-31T12:35:26;3.00;;;2.00;;
73959;SDS011;62316;48.920;2.342;2023-03-31T12:38:18;1.67;;;1.00;;
73959;SDS011;62316;48.920;2.342;2023-03-31T12:52:15;2.67;;;1.00;;
73959;SDS011;62316;48.920;2.342;2023-03-31T12:57:47;2.33;;;1.33;;
73959;SDS011;62316;48.920;2.342;2023-03-31T13:00:26;3.00;;;2.00;;
73959;SDS011;62316;48.920;2.342;2023-03-31T13:05:54;3.67;;;1.67;;
73959;SDS011;62316;48.920;2.342;2023-03-31T13:11:37;3.33;;;1.00;;
73959;SDS011;62316;48.920;2.342;2023-03-31T13:14:05;1.00;;;1.00;;
73959;SDS011;62316;48.920;2.342;2023-03-31T13:16:52;0.00;;;0.00;;
73959;SDS011;62316;48.920;2.342;2023-03-31T13:19:56;2.67;;;2.67;;
73959;SDS011;62316;48.920;2.342;2023-03-31T13:22:40;3.00;;;0.33;;
73959;SDS011;62316;48.920;2.342;2023-03-31T13:27:53;0.00;;;0.00;;
73959;SDS011;62316;48.920;2.342;2023-03-31T13:30:54;1.67;;;0.00;;
73959;SDS011;62316;48.920;2.342;2023-03-31T13:35:53;0.33;;;0.33;;
73959;SDS011;62316;48.920;2.342;2023-03-31T13:52:52;0.00;;;0.00;;
73959;SDS011;62316;48.920;2.342;2023-03-31T14:11:19;0.33;;;0.00;;
73959;SDS011;62316;48.920;2.342;2023-03-31T14:16:36;0.00;;;0.00;;
73959;SDS011;62316;48.920;2.342;2023-03-31T14:27:17;0.00;;;0.00;;
73959;SDS011;62316;48.920;2.342;2023-03-31T14:33:05;0.00;;;0.00;;
73959;SDS011;62316;48.920;2.342;2023-03-31T14:35:56;0.00;;;0.00;;
73959;SDS011;62316;48.920;2.342;2023-03-31T14:38:26;1.67;;;1.67;;
73959;SDS011;62316;48.920;2.342;2023-03-31T14:40:53;0.67;;;0.00;;
73959;SDS011;62316;48.920;2.342;2023-03-31T14:43:22;2.33;;;0.00;;
73959;SDS011;62316;48.920;2.342;2023-03-31T14:45:56;0.00;;;0.00;;
73959;SDS011;62316;48.920;2.342;2023-03-31T14:48:25;0.00;;;0.00;;
73959;SDS011;62316;48.920;2.342;2023-03-31T14:50:55;0.67;;;0.67;;
73959;SDS011;62316;48.920;2.342;2023-03-31T14:53:22;1.00;;;1.00;;
73959;SDS011;62316;48.920;2.342;2023-03-31T14:55:54;1.33;;;0.00;;
73959;SDS011;62316;48.920;2.342;2023-03-31T14:58:27;1.00;;;0.00;;
73959;SDS011;62316;48.920;2.342;2023-03-31T15:00:58;1.00;;;1.00;;
73959;SDS011;62316;48.920;2.342;2023-03-31T15:03:27;0.00;;;0.00;;
73959;SDS011;62316;48.920;2.342;2023-03-31T15:05:57;0.00;;;0.00;;
73959;SDS011;62316;48.920;2.342;2023-03-31T15:08:24;2.00;;;0.67;;
73959;SDS011;62316;48.920;2.342;2023-03-31T15:10:52;1.33;;;1.00;;
73959;SDS011;62316;48.920;2.342;2023-03-31T15:13:22;0.33;;;0.33;;
73959;SDS011;62316;48.920;2.342;2023-03-31T15:15:55;2.00;;;0.67;;
73959;SDS011;62316;48.920;2.342;2023-03-31T15:18:20;1.00;;;0.00;;
73959;SDS011;62316;48.920;2.342;2023-03-31T15:20:51;0.00;;;0.00;;
73959;SDS011;62316;48.920;2.342;2023-03-31T15:23:19;0.00;;;0.00;;
73959;SDS011;62316;48.920;2.342;2023-03-31T15:26:04;1.67;;;1.00;;
73959;SDS011;62316;48.920;2.342;2023-03-31T15:28:34;1.00;;;1.00;;
73959;SDS011;62316;48.920;2.342;2023-03-31T15:31:03;1.33;;;1.00;;
73959;SDS011;62316;48.920;2.342;2023-03-31T15:33:32;0.00;;;0.00;;
73959;SDS011;62316;48.920;2.342;2023-03-31T15:36:00;2.00;;;0.00;;
73959;SDS011;62316;48.920;2.342;2023-03-31T15:38:33;1.00;;;1.00;;
73959;SDS011;62316;48.920;2.342;2023-03-31T15:40:58;2.33;;;2.33;;
73959;SDS011;62316;48.920;2.342;2023-03-31T15:46:00;0.67;;;0.67;;
73959;SDS011;62316;48.920;2.342;2023-03-31T15:48:31;1.00;;;1.00;;
73959;SDS011;62316;48.920;2.342;2023-03-31T15:51:03;0.00;;;0.00;;
73959;SDS011;62316;48.920;2.342;2023-03-31T15:53:37;1.33;;;0.00;;
73959;SDS011;62316;48.920;2.342;2023-03-31T15:56:09;0.00;;;0.00;;
73959;SDS011;62316;48.920;2.342;2023-03-31T15:59:27;0.33;;;0.33;;
73959;SDS011;62316;48.920;2.342;2023-03-31T16:01:54;2.33;;;1.00;;
73959;SDS011;62316;48.920;2.342;2023-03-31T16:04:30;2.00;;;1.00;;
73959;SDS011;62316;48.920;2.342;2023-03-31T16:12:12;1.33;;;0.00;;
73959;SDS011;62316;48.920;2.342;2023-03-31T16:14:52;0.00;;;0.00;;
73959;SDS011;62316;48.920;2.342;2023-03-31T16:17:26;0.00;;;0.00;;
73959;SDS011;62316;48.920;2.342;2023-03-31T16:20:05;0.33;;;0.00;;
73959;SDS011;62316;48.920;2.342;2023-03-31T16:22:41;1.33;;;0.00;;
73959;SDS011;62316;48.920;2.342;2023-03-31T16:25:09;2.00;;;0.00;;
73959;SDS011;62316;48.920;2.342;2023-03-31T16:27:41;2.00;;;0.00;;
73959;SDS011;62316;48.920;2.342;2023-03-31T16:30:10;1.00;;;0.67;;
73959;SDS011;62316;48.920;2.342;2023-03-31T16:35:33;0.00;;;0.00;;
73959;SDS011;62316;48.920;2.342;2023-03-31T16:38:04;1.00;;;1.00;;
73959;SDS011;62316;48.920;2.342;2023-03-31T16:40:40;0.00;;;0.00;;
73959;SDS011;62316;48.920;2.342;2023-03-31T16:45:42;1.00;;;0.33;;
73959;SDS011;62316;48.920;2.342;2023-03-31T16:48:09;0.67;;;0.67;;
73959;SDS011;62316;48.920;2.342;2023-03-31T16:50:53;0.00;;;0.00;;
73959;SDS011;62316;48.920;2.342;2023-03-31T16:53:25;4.00;;;3.00;;
73959;SDS011;62316;48.920;2.342;2023-03-31T16:55:59;3.00;;;1.67;;
73959;SDS011;62316;48.920;2.342;2023-03-31T16:58:32;1.00;;;1.00;;
73959;SDS011;62316;48.920;2.342;2023-03-31T17:00:59;2.67;;;1.00;;
73959;SDS011;62316;48.920;2.342;2023-03-31T17:03:25;4.00;;;2.67;;
73959;SDS011;62316;48.920;2.342;2023-03-31T17:05:52;0.67;;;0.67;;
73959;SDS011;62316;48.920;2.342;2023-03-31T17:08:20;3.00;;;2.00;;
73959;SDS011;62316;48.920;2.342;2023-03-31T17:10:51;1.33;;;1.00;;
73959;SDS011;62316;48.920;2.342;2023-03-31T17:13:16;2.00;;;2.00;;
73959;SDS011;62316;48.920;2.342;2023-03-31T17:15:43;2.33;;;1.33;;
73959;SDS011;62316;48.920;2.342;2023-03-31T17:18:10;1.00;;;1.00;;
73959;SDS011;62316;48.920;2.342;2023-03-31T17:20:36;0.67;;;0.67;;
73959;SDS011;62316;48.920;2.342;2023-03-31T17:23:01;3.00;;;2.00;;
73959;SDS011;62316;48.920;2.342;2023-03-31T17:25:28;0.33;;;0.00;;
73959;SDS011;62316;48.920;2.342;2023-03-31T17:27:54;4.33;;;1.00;;
73959;SDS011;62316;48.920;2.342;2023-03-31T17:30:20;3.00;;;1.00;;
73959;SDS011;62316;48.920;2.342;2023-03-31T17:32:47;0.00;;;0.00;;
73959;SDS011;62316;48.920;2.342;2023-03-31T17:35:13;1.00;;;1.00;;
73959;SDS011;62316;48.920;2.342;2023-03-31T17:37:46;1.33;;;1.00;;
73959;SDS011;62316;48.920;2.342;2023-03-31T17:40:21;3.00;;;2.00;;
73959;SDS011;62316;48.920;2.342;2023-03-31T17:42:50;0.67;;;0.67;;
73959;SDS011;62316;48.920;2.342;2023-03-31T17:45:19;1.00;;;1.00;;
73959;SDS011;62316;48.920;2.342;2023-03-31T17:47:45;0.67;;;0.67;;
73959;SDS011;62316;48.920;2.342;2023-03-31T17:50:10;1.00;;;1.00;;
73959;SDS011;62316;48.920;2.342;2023-03-31T17:52:36;2.67;;;1.00;;
73959;SDS011;62316;48.920;2.342;2023-03-31T17:55:03;0.00;;;0.00;;
73959;SDS011;62316;48.920;2.342;2023-03-31T17:57:29;2.67;;;1.67;;
73959;SDS011;62316;48.920;2.342;2023-03-31T18:00:00;2.33;;;1.00;;
73959;SDS011;62316;48.920;2.342;2023-03-31T18:02:26;1.67;;;1.67;;
73959;SDS011;62316;48.920;2.342;2023-03-31T18:04:52;2.00;;;2.00;;
73959;SDS011;62316;48.920;2.342;2023-03-31T18:07:20;1.33;;;0.00;;
73959;SDS011;62316;48.920;2.342;2023-03-31T18:09:47;2.00;;;1.00;;
73959;SDS011;62316;48.920;2.342;2023-03-31T18:12:13;3.00;;;0.00;;
73959;SDS011;62316;48.920;2.342;2023-03-31T18:14:38;3.67;;;2.67;;
73959;SDS011;62316;48.920;2.342;2023-03-31T18:17:04;2.00;;;2.00;;
73959;SDS011;62316;48.920;2.342;2023-03-31T18:19:30;2.33;;;1.00;;
73959;SDS011;62316;48.920;2.342;2023-03-31T18:22:00;1.00;;;1.00;;
73959;SDS011;62316;48.920;2.342;2023-03-31T18:24:31;0.33;;;0.33;;
73959;SDS011;62316;48.920;2.342;2023-03-31T18:27:00;3.00;;;2.00;;
73959;SDS011;62316;48.920;2.342;2023-03-31T18:29:30;2.33;;;2.00;;
73959;SDS011;62316;48.920;2.342;2023-03-31T18:31:55;3.00;;;1.00;;
73959;SDS011;62316;48.920;2.342;2023-03-31T18:34:22;1.33;;;0.67;;
73959;SDS011;62316;48.920;2.342;2023-03-31T18:36:50;2.67;;;2.67;;
73959;SDS011;62316;48.920;2.342;2023-03-31T18:39:17;1.33;;;1.00;;
73959;SDS011;62316;48.920;2.342;2023-03-31T18:41:47;1.00;;;0.00;;
73959;SDS011;62316;48.920;2.342;2023-03-31T18:44:13;3.00;;;2.00;;
73959;SDS011;62316;48.920;2.342;2023-03-31T18:46:41;2.00;;;1.33;;
73959;SDS011;62316;48.920;2.342;2023-03-31T18:49:12;3.00;;;0.00;;
73959;SDS011;62316;48.920;2.342;2023-03-31T18:51:38;1.67;;;1.00;;
73959;SDS011;62316;48.920;2.342;2023-03-31T18:54:04;1.67;;;1.67;;
73959;SDS011;62316;48.920;2.342;2023-03-31T18:56:29;1.00;;;1.00;;
73959;SDS011;62316;48.920;2.342;2023-03-31T18:58:55;2.67;;;1.00;;
73959;SDS011;62316;48.920;2.342;2023-03-31T19:01:21;3.67;;;0.00;;
73959;SDS011;62316;48.920;2.342;2023-03-31T19:03:48;1.00;;;1.00;;
73959;SDS011;62316;48.920;2.342;2023-03-31T19:06:13;1.33;;;0.00;;
73959;SDS011;62316;48.920;2.342;2023-03-31T19:08:41;0.67;;;0.33;;
73959;SDS011;62316;48.920;2.342;2023-03-31T19:11:11;1.00;;;1.00;;
73959;SDS011;62316;48.920;2.342;2023-03-31T19:13:38;1.00;;;1.00;;
73959;SDS011;62316;48.920;2.342;2023-03-31T19:16:07;2.00;;;1.00;;
73959;SDS011;62316;48.920;2.342;2023-03-31T19:18:37;0.67;;;0.67;;
73959;SDS011;62316;48.920;2.342;2023-03-31T19:21:03;3.00;;;2.00;;
73959;SDS011;62316;48.920;2.342;2023-03-31T19:23:30;2.00;;;2.00;;
73959;SDS011;62316;48.920;2.342;2023-03-31T19:25:58;1.67;;;1.67;;
73959;SDS011;62316;48.920;2.342;2023-03-31T19:28:24;2.67;;;0.67;;
73959;SDS011;62316;48.920;2.342;2023-03-31T19:30:58;2.00;;;1.00;;
73959;SDS011;62316;48.920;2.342;2023-03-31T19:33:29;3.33;;;1.00;;
73959;SDS011;62316;48.920;2.342;2023-03-31T19:35:58;0.67;;;0.67;;
73959;SDS011;62316;48.920;2.342;2023-03-31T19:38:24;2.00;;;1.67;;
73959;SDS011;62316;48.920;2.342;2023-03-31T19:40:56;3.67;;;0.00;;
73959;SDS011;62316;48.920;2.342;2023-03-31T19:43:22;1.00;;;1.00;;
73959;SDS011;62316;48.920;2.342;2023-03-31T19:45:50;1.33;;;1.00;;
73959;SDS011;62316;48.920;2.342;2023-03-31T19:48:21;0.33;;;0.33;;
73959;SDS011;62316;48.920;2.342;2023-03-31T19:50:55;3.00;;;1.00;;
73959;SDS011;62316;48.920;2.342;2023-03-31T19:53:27;3.00;;;1.67;;
73959;SDS011;62316;48.920;2.342;2023-03-31T19:55:59;5.00;;;3.00;;
73959;SDS011;62316;48.920;2.342;2023-03-31T19:58:27;3.67;;;3.00;;
73959;SDS011;62316;48.920;2.342;2023-03-31T20:00:54;1.00;;;1.00;;
73959;SDS011;62316;48.920;2.342;2023-03-31T20:03:21;1.00;;;1.00;;
73959;SDS011;62316;48.920;2.342;2023-03-31T20:05:49;3.00;;;1.00;;
73959;SDS011;62316;48.920;2.342;2023-03-31T20:08:15;2.33;;;1.00;;
73959;SDS011;62316;48.920;2.342;2023-03-31T20:10:41;1.33;;;0.67;;
73959;SDS011;62316;48.920;2.342;2023-03-31T20:13:07;1.00;;;1.00;;
73959;SDS011;62316;48.920;2.342;2023-03-31T20:15:33;2.00;;;2.00;;
73959;SDS011;62316;48.920;2.342;2023-03-31T20:18:00;2.00;;;1.00;;
73959;SDS011;62316;48.920;2.342;2023-03-31T20:20:25;4.00;;;1.00;;
73959;SDS011;62316;48.920;2.342;2023-03-31T20:22:51;3.00;;;1.33;;
73959;SDS011;62316;48.920;2.342;2023-03-31T20:25:19;0.00;;;0.00;;
73959;SDS011;62316;48.920;2.342;2023-03-31T20:27:46;3.00;;;1.00;;
73959;SDS011;62316;48.920;2.342;2023-03-31T20:30:11;1.67;;;0.00;;
73959;SDS011;62316;48.920;2.342;2023-03-31T20:32:37;0.33;;;0.00;;
73959;SDS011;62316;48.920;2.342;2023-03-31T20:35:04;2.00;;;2.00;;
73959;SDS011;62316;48.920;2.342;2023-03-31T20:37:31;2.67;;;2.67;;
73959;SDS011;62316;48.920;2.342;2023-03-31T20:39:57;2.00;;;1.00;;
73959;SDS011;62316;48.920;2.342;2023-03-31T20:42:24;2.00;;;1.00;;
73959;SDS011;62316;48.920;2.342;2023-03-31T20:44:50;2.00;;;0.00;;
73959;SDS011;62316;48.920;2.342;2023-03-31T20:47:20;0.67;;;0.67;;
73959;SDS011;62316;48.920;2.342;2023-03-31T20:49:47;1.33;;;1.33;;
73959;SDS011;62316;48.920;2.342;2023-03-31T20:52:13;4.00;;;2.67;;
73959;SDS011;62316;48.920;2.342;2023-03-31T20:54:40;1.00;;;0.00;;
73959;SDS011;62316;48.920;2.342;2023-03-31T20:57:07;4.67;;;2.00;;
73959;SDS011;62316;48.920;2.342;2023-03-31T20:59:35;1.00;;;1.00;;
73959;SDS011;62316;48.920;2.342;2023-03-31T21:02:02;0.33;;;0.00;;
73959;SDS011;62316;48.920;2.342;2023-03-31T21:04:28;2.33;;;0.67;;
73959;SDS011;62316;48.920;2.342;2023-03-31T21:06:57;1.00;;;0.00;;
73959;SDS011;62316;48.920;2.342;2023-03-31T21:09:36;0.00;;;0.00;;
73959;SDS011;62316;48.920;2.342;2023-03-31T21:12:06;3.67;;;1.00;;
73959;SDS011;62316;48.920;2.342;2023-03-31T21:14:31;2.67;;;2.00;;
73959;SDS011;62316;48.920;2.342;2023-03-31T21:16:57;0.00;;;0.00;;